FFT2833 KMCO-KMKE
Flight info
| Callsign | FFT2833 |
|---|---|
| Flight time | N/A |
| Altitude | 38000 |
| Route | JEEMY3 PAINN SHRKS Q77 TEUFL VXV J99 IIU J89 MACES VINNE BRAVE EXARR |
| Aircraft | A20N/M-SDE2E3FGHIRWXY/LB1 |
Departure
| Time | N/A |
|---|---|
| Airport | Orlando International Airport (KMCO) |
Arrival
| Time | 2026-04-20 23:42 |
|---|---|
| Airport | General Mitchell International Airport (KMKE) |
| Time | Latitude | Longitude | Altitude | Speed | Heading |
|---|---|---|---|---|---|
| 2026-04-20 22:43 | 41.54496 | -83.65191 | 44784 ft | 364 kts | 347° |
| 2026-04-20 22:43 | 41.56082 | -83.65473 | 44801 ft | 363 kts | 348° |
| 2026-04-20 22:43 | 41.58644 | -83.65749 | 44559 ft | 375 kts | 356° |
| 2026-04-20 22:43 | 41.61312 | -83.65288 | 43431 ft | 419 kts | 12° |
| 2026-04-20 22:44 | 41.64099 | -83.63487 | 42340 ft | 456 kts | 24° |
| 2026-04-20 22:44 | 41.66794 | -83.61259 | 42166 ft | 460 kts | 25° |
| 2026-04-20 22:44 | 41.72224 | -83.56908 | 41765 ft | 442 kts | 13° |
| 2026-04-20 22:45 | 41.75155 | -83.56150 | 41378 ft | 420 kts | 352° |
| 2026-04-20 22:45 | 41.77947 | -83.56900 | 41046 ft | 406 kts | 333° |
| 2026-04-20 22:45 | 41.80269 | -83.58977 | 40684 ft | 401 kts | 316° |
| 2026-04-20 22:45 | 41.82163 | -83.61706 | 40244 ft | 403 kts | 310° |
| 2026-04-20 22:46 | 41.83823 | -83.64751 | 39827 ft | 405 kts | 305° |
| 2026-04-20 22:46 | 41.85251 | -83.67966 | 39439 ft | 407 kts | 302° |
| 2026-04-20 22:46 | 41.86606 | -83.71291 | 39083 ft | 406 kts | 301° |
| 2026-04-20 22:46 | 41.87881 | -83.74682 | 38629 ft | 407 kts | 299° |
| 2026-04-20 22:47 | 41.88994 | -83.78153 | 38355 ft | 403 kts | 295° |
| 2026-04-20 22:47 | 41.89880 | -83.81703 | 38312 ft | 396 kts | 291° |
| 2026-04-20 22:47 | 41.90829 | -83.88833 | 38312 ft | 387 kts | 281° |
| 2026-04-20 22:48 | 41.90582 | -83.96124 | 38313 ft | 399 kts | 269° |
| 2026-04-20 22:48 | 41.89964 | -83.99751 | 38318 ft | 411 kts | 262° |
| 2026-04-20 22:48 | 41.89066 | -84.03445 | 38324 ft | 418 kts | 260° |
| 2026-04-20 22:49 | 41.87132 | -84.10882 | 38331 ft | 427 kts | 259° |
| 2026-04-20 22:49 | 41.85154 | -84.18446 | 38258 ft | 433 kts | 259° |
| 2026-04-20 22:50 | 41.83149 | -84.26126 | 38309 ft | 439 kts | 259° |
| 2026-04-20 22:50 | 41.81130 | -84.33864 | 38316 ft | 443 kts | 259° |
| 2026-04-20 22:51 | 41.79093 | -84.41647 | 38297 ft | 447 kts | 259° |
| 2026-04-20 22:51 | 41.77027 | -84.49525 | 38427 ft | 447 kts | 259° |
| 2026-04-20 22:52 | 41.75997 | -84.53436 | 38610 ft | 444 kts | 259° |
| 2026-04-20 22:52 | 41.74970 | -84.57323 | 38813 ft | 442 kts | 259° |
| 2026-04-20 22:52 | 41.73941 | -84.61200 | 38980 ft | 439 kts | 259° |
| 2026-04-20 22:52 | 41.72930 | -84.64995 | 39143 ft | 437 kts | 259° |
| 2026-04-20 22:53 | 41.71895 | -84.68864 | 39306 ft | 435 kts | 258° |
| 2026-04-20 22:53 | 41.70880 | -84.72646 | 39467 ft | 434 kts | 258° |
| 2026-04-20 22:53 | 41.69859 | -84.76440 | 39634 ft | 432 kts | 258° |
| 2026-04-20 22:53 | 41.68837 | -84.80221 | 39802 ft | 430 kts | 258° |
| 2026-04-20 22:54 | 41.67820 | -84.83973 | 39981 ft | 428 kts | 258° |
| 2026-04-20 22:54 | 41.66813 | -84.87677 | 40146 ft | 426 kts | 258° |
| 2026-04-20 22:54 | 41.65802 | -84.91379 | 40319 ft | 424 kts | 258° |
| 2026-04-20 22:54 | 41.64804 | -84.95022 | 40487 ft | 421 kts | 258° |
| 2026-04-20 22:55 | 41.63797 | -84.98686 | 40649 ft | 419 kts | 258° |
| 2026-04-20 22:55 | 41.62787 | -85.02344 | 40815 ft | 417 kts | 258° |
| 2026-04-20 22:55 | 41.61779 | -85.05988 | 40990 ft | 415 kts | 258° |
| 2026-04-20 22:55 | 41.60783 | -85.09573 | 41163 ft | 413 kts | 257° |
| 2026-04-20 22:56 | 41.59787 | -85.13144 | 41326 ft | 411 kts | 257° |
| 2026-04-20 22:56 | 41.58789 | -85.16711 | 41494 ft | 409 kts | 257° |
| 2026-04-20 22:56 | 41.57795 | -85.20252 | 41647 ft | 407 kts | 257° |
| 2026-04-20 22:56 | 41.56806 | -85.23764 | 41808 ft | 404 kts | 257° |
| 2026-04-20 22:57 | 41.55819 | -85.27257 | 41968 ft | 402 kts | 257° |
| 2026-04-20 22:57 | 41.54829 | -85.30752 | 42120 ft | 400 kts | 257° |
| 2026-04-20 22:57 | 41.53848 | -85.34203 | 42265 ft | 398 kts | 257° |
| 2026-04-20 22:57 | 41.52877 | -85.37608 | 42421 ft | 396 kts | 257° |
| 2026-04-20 22:58 | 41.51886 | -85.41072 | 42565 ft | 394 kts | 257° |
| 2026-04-20 22:58 | 41.50921 | -85.44436 | 42710 ft | 392 kts | 257° |
| 2026-04-20 22:58 | 41.49938 | -85.47849 | 42849 ft | 390 kts | 257° |
| 2026-04-20 22:58 | 41.48976 | -85.51183 | 42985 ft | 388 kts | 257° |
| 2026-04-20 22:59 | 41.48001 | -85.54551 | 43118 ft | 386 kts | 256° |
| 2026-04-20 22:59 | 41.47044 | -85.57845 | 43255 ft | 384 kts | 256° |
| 2026-04-20 22:59 | 41.46073 | -85.61176 | 43384 ft | 382 kts | 256° |
| 2026-04-20 22:59 | 41.45120 | -85.64439 | 43497 ft | 380 kts | 256° |
| 2026-04-20 23:00 | 41.44149 | -85.67751 | 43614 ft | 378 kts | 256° |
| 2026-04-20 23:00 | 41.43196 | -85.70994 | 43730 ft | 376 kts | 256° |
| 2026-04-20 23:00 | 41.42241 | -85.74233 | 43842 ft | 374 kts | 256° |
| 2026-04-20 23:00 | 41.41301 | -85.77418 | 43947 ft | 373 kts | 255° |
| 2026-04-20 23:01 | 41.39408 | -85.83798 | 44139 ft | 369 kts | 255° |
| 2026-04-20 23:01 | 41.37524 | -85.90124 | 44314 ft | 366 kts | 255° |
| 2026-04-20 23:02 | 41.35646 | -85.96410 | 44355 ft | 367 kts | 255° |
| 2026-04-20 23:02 | 41.33742 | -86.02778 | 44340 ft | 370 kts | 255° |
| 2026-04-20 23:03 | 41.31848 | -86.09114 | 44394 ft | 370 kts | 255° |
| 2026-04-20 23:03 | 41.29949 | -86.15453 | 44490 ft | 369 kts | 255° |
| 2026-04-20 23:04 | 41.28091 | -86.21787 | 44524 ft | 368 kts | 257° |
| 2026-04-20 23:04 | 41.27468 | -86.25140 | 44113 ft | 372 kts | 270° |
| 2026-04-20 23:04 | 41.27245 | -86.28589 | 43699 ft | 386 kts | 269° |
| 2026-04-20 23:05 | 41.26835 | -86.32172 | 43262 ft | 404 kts | 264° |
| 2026-04-20 23:05 | 41.26167 | -86.35886 | 42819 ft | 420 kts | 261° |
| 2026-04-20 23:05 | 41.25317 | -86.39621 | 42385 ft | 435 kts | 258° |
| 2026-04-20 23:05 | 41.24318 | -86.43481 | 42231 ft | 439 kts | 257° |
| 2026-04-20 23:06 | 41.23271 | -86.47268 | 42039 ft | 439 kts | 256° |
| 2026-04-20 23:06 | 41.22187 | -86.51067 | 41711 ft | 440 kts | 256° |
| 2026-04-20 23:06 | 41.21095 | -86.54827 | 41350 ft | 441 kts | 256° |
| 2026-04-20 23:06 | 41.19985 | -86.58621 | 40995 ft | 440 kts | 256° |
| 2026-04-20 23:07 | 41.18882 | -86.62363 | 40662 ft | 440 kts | 256° |
| 2026-04-20 23:07 | 41.17753 | -86.66181 | 40312 ft | 440 kts | 256° |
| 2026-04-20 23:07 | 41.16627 | -86.69972 | 40138 ft | 440 kts | 256° |
| 2026-04-20 23:07 | 41.15509 | -86.73715 | 39812 ft | 440 kts | 256° |
| 2026-04-20 23:08 | 41.14381 | -86.77473 | 39475 ft | 440 kts | 256° |
| 2026-04-20 23:08 | 41.13247 | -86.81264 | 39051 ft | 440 kts | 256° |
| 2026-04-20 23:08 | 41.12137 | -86.85020 | 38566 ft | 439 kts | 257° |
| 2026-04-20 23:08 | 41.11024 | -86.88837 | 38293 ft | 442 kts | 257° |
| 2026-04-20 23:09 | 41.08828 | -86.96419 | 38241 ft | 443 kts | 257° |
| 2026-04-20 23:09 | 41.07774 | -87.00206 | 38250 ft | 431 kts | 262° |
| 2026-04-20 23:09 | 41.07468 | -87.04055 | 38243 ft | 409 kts | 283° |
| 2026-04-20 23:10 | 41.08186 | -87.07619 | 38267 ft | 399 kts | 297° |
| 2026-04-20 23:10 | 41.09537 | -87.10779 | 38262 ft | 396 kts | 309° |
| 2026-04-20 23:10 | 41.11402 | -87.13476 | 38263 ft | 397 kts | 320° |
| 2026-04-20 23:10 | 41.13668 | -87.15543 | 38256 ft | 400 kts | 331° |
| 2026-04-20 23:11 | 41.16270 | -87.16883 | 38243 ft | 405 kts | 343° |
| 2026-04-20 23:11 | 41.19054 | -87.17363 | 38246 ft | 405 kts | 354° |
| 2026-04-20 23:11 | 41.21907 | -87.17262 | 38088 ft | 411 kts | 354° |
| 2026-04-20 23:11 | 41.24739 | -87.17494 | 37914 ft | 406 kts | 351° |
| 2026-04-20 23:12 | 41.27572 | -87.17790 | 37453 ft | 406 kts | 351° |
| 2026-04-20 23:12 | 41.30366 | -87.18085 | 36993 ft | 405 kts | 351° |
| 2026-04-20 23:12 | 41.33164 | -87.18389 | 36444 ft | 403 kts | 351° |
| 2026-04-20 23:12 | 41.35948 | -87.18705 | 35969 ft | 401 kts | 351° |
| 2026-04-20 23:13 | 41.38739 | -87.19023 | 35668 ft | 396 kts | 351° |
| 2026-04-20 23:13 | 41.41462 | -87.19338 | 35130 ft | 398 kts | 351° |
| 2026-04-20 23:13 | 41.44277 | -87.19671 | 34638 ft | 396 kts | 351° |
| 2026-04-20 23:13 | 41.47096 | -87.20002 | 34306 ft | 390 kts | 351° |
| 2026-04-20 23:14 | 41.49791 | -87.20319 | 33792 ft | 390 kts | 350° |
| 2026-04-20 23:14 | 41.52470 | -87.20638 | 33274 ft | 390 kts | 351° |
| 2026-04-20 23:14 | 41.55198 | -87.20963 | 32745 ft | 390 kts | 350° |
| 2026-04-20 23:14 | 41.57891 | -87.21285 | 32225 ft | 390 kts | 350° |
| 2026-04-20 23:15 | 41.59852 | -87.21521 | 31846 ft | 391 kts | 350° |
| 2026-04-20 23:15 | 41.62444 | -87.21832 | 31347 ft | 391 kts | 350° |
| 2026-04-20 23:15 | 41.65150 | -87.22156 | 30829 ft | 392 kts | 350° |
| 2026-04-20 23:15 | 41.67829 | -87.22478 | 30318 ft | 392 kts | 350° |
| 2026-04-20 23:16 | 41.70556 | -87.22806 | 29793 ft | 392 kts | 350° |
| 2026-04-20 23:16 | 41.73245 | -87.23130 | 29278 ft | 392 kts | 350° |
| 2026-04-20 23:16 | 41.75988 | -87.23460 | 28738 ft | 392 kts | 350° |
| 2026-04-20 23:16 | 41.78698 | -87.23787 | 28214 ft | 393 kts | 350° |
| 2026-04-20 23:17 | 41.81403 | -87.24114 | 27692 ft | 393 kts | 350° |
| 2026-04-20 23:17 | 41.84117 | -87.24442 | 27169 ft | 393 kts | 350° |
| 2026-04-20 23:17 | 41.86858 | -87.24773 | 26649 ft | 393 kts | 350° |
| 2026-04-20 23:17 | 41.89572 | -87.25101 | 26134 ft | 394 kts | 350° |
| 2026-04-20 23:18 | 41.92297 | -87.25429 | 25620 ft | 394 kts | 350° |
| 2026-04-20 23:18 | 41.95017 | -87.25761 | 25112 ft | 395 kts | 350° |
| 2026-04-20 23:18 | 41.97754 | -87.26093 | 24606 ft | 396 kts | 351° |
| 2026-04-20 23:18 | 42.00486 | -87.26424 | 24103 ft | 396 kts | 351° |
| 2026-04-20 23:19 | 42.03224 | -87.26754 | 23611 ft | 397 kts | 350° |
| 2026-04-20 23:19 | 42.05986 | -87.27090 | 23105 ft | 397 kts | 351° |
| 2026-04-20 23:19 | 42.08741 | -87.27427 | 22589 ft | 397 kts | 351° |
| 2026-04-20 23:19 | 42.11469 | -87.27759 | 22091 ft | 398 kts | 351° |
| 2026-04-20 23:20 | 42.12299 | -87.27859 | 21939 ft | 398 kts | 351° |
| 2026-04-20 23:20 | 42.15073 | -87.28200 | 21431 ft | 399 kts | 351° |
| 2026-04-20 23:20 | 42.17844 | -87.28537 | 20933 ft | 400 kts | 351° |
| 2026-04-20 23:20 | 42.20625 | -87.28876 | 20429 ft | 401 kts | 351° |
| 2026-04-20 23:21 | 42.23398 | -87.29215 | 19951 ft | 401 kts | 351° |
| 2026-04-20 23:21 | 42.26176 | -87.29555 | 19455 ft | 401 kts | 351° |
| 2026-04-20 23:21 | 42.28940 | -87.29893 | 18949 ft | 401 kts | 351° |
| 2026-04-20 23:21 | 42.31715 | -87.30233 | 18444 ft | 401 kts | 351° |
| 2026-04-20 23:22 | 42.34497 | -87.30573 | 18001 ft | 400 kts | 351° |
| 2026-04-20 23:22 | 42.37257 | -87.30909 | 17625 ft | 398 kts | 351° |
| 2026-04-20 23:22 | 42.40001 | -87.31245 | 17253 ft | 396 kts | 351° |
| 2026-04-20 23:22 | 42.42720 | -87.31579 | 16888 ft | 394 kts | 351° |
| 2026-04-20 23:23 | 42.45442 | -87.31913 | 16544 ft | 393 kts | 351° |
| 2026-04-20 23:23 | 42.48179 | -87.32251 | 16213 ft | 391 kts | 351° |
| 2026-04-20 23:23 | 42.50857 | -87.32581 | 15891 ft | 389 kts | 351° |
| 2026-04-20 23:23 | 42.53546 | -87.32912 | 15555 ft | 388 kts | 351° |
| 2026-04-20 23:24 | 42.56238 | -87.33245 | 15259 ft | 387 kts | 351° |
| 2026-04-20 23:24 | 42.58929 | -87.33579 | 14948 ft | 386 kts | 351° |
| 2026-04-20 23:24 | 42.61573 | -87.33907 | 14667 ft | 384 kts | 351° |
| 2026-04-20 23:24 | 42.64222 | -87.34235 | 14371 ft | 383 kts | 351° |
| 2026-04-20 23:25 | 42.66890 | -87.34566 | 14105 ft | 382 kts | 350° |
| 2026-04-20 23:25 | 42.69492 | -87.35185 | 13867 ft | 376 kts | 342° |
| 2026-04-20 23:25 | 42.71964 | -87.36289 | 13588 ft | 373 kts | 335° |
| 2026-04-20 23:25 | 42.74316 | -87.37701 | 13332 ft | 371 kts | 333° |
| 2026-04-20 23:26 | 42.76672 | -87.39180 | 13089 ft | 370 kts | 333° |
| 2026-04-20 23:26 | 42.78997 | -87.40649 | 12828 ft | 370 kts | 333° |
| 2026-04-20 23:26 | 42.81319 | -87.42117 | 12588 ft | 370 kts | 333° |
| 2026-04-20 23:26 | 42.83655 | -87.43589 | 12374 ft | 369 kts | 333° |
| 2026-04-20 23:27 | 42.85979 | -87.45057 | 12149 ft | 369 kts | 333° |
| 2026-04-20 23:27 | 42.88454 | -87.46133 | 11953 ft | 374 kts | 348° |
| 2026-04-20 23:27 | 42.91038 | -87.46163 | 11834 ft | 379 kts | 1° |
| 2026-04-20 23:27 | 42.93668 | -87.45637 | 11543 ft | 384 kts | 5° |
| 2026-04-20 23:28 | 42.96302 | -87.44988 | 11358 ft | 384 kts | 6° |
| 2026-04-20 23:28 | 42.98907 | -87.44329 | 11213 ft | 382 kts | 6° |
| 2026-04-20 23:28 | 43.01420 | -87.43690 | 11162 ft | 379 kts | 6° |
| 2026-04-20 23:28 | 43.03466 | -87.43278 | 10978 ft | 276 kts | 2° |
| 2026-04-20 23:29 | 43.05512 | -87.42786 | 10277 ft | 320 kts | 5° |
| 2026-04-20 23:29 | 43.07253 | -87.42528 | 9861 ft | 263 kts | 359° |
| 2026-04-20 23:29 | 43.08495 | -87.42486 | 9545 ft | 283 kts | 0° |
| 2026-04-20 23:29 | 43.10400 | -87.42291 | 9060 ft | 297 kts | 3° |
| 2026-04-20 23:30 | 43.12572 | -87.41805 | 8555 ft | 332 kts | 5° |
| 2026-04-20 23:30 | 43.14909 | -87.41257 | 8041 ft | 357 kts | 6° |
| 2026-04-20 23:30 | 43.17426 | -87.40682 | 7543 ft | 376 kts | 6° |
| 2026-04-20 23:30 | 43.19914 | -87.40134 | 7431 ft | 378 kts | 6° |
| 2026-04-20 23:31 | 43.21117 | -87.39967 | 3126 ft | 379 kts | 5° |
| 2026-04-20 23:31 | 43.23764 | -87.39569 | 3064 ft | 378 kts | 6° |
| 2026-04-20 23:31 | 43.26368 | -87.39169 | 2945 ft | 372 kts | 6° |
| 2026-04-20 23:31 | 43.28933 | -87.38792 | 2939 ft | 373 kts | 5° |
| 2026-04-20 23:32 | 43.31497 | -87.38410 | 2923 ft | 354 kts | 6° |
| 2026-04-20 23:32 | 43.33808 | -87.38097 | 2913 ft | 315 kts | 360° |
| 2026-04-20 23:32 | 43.35811 | -87.38585 | 2905 ft | 270 kts | 332° |
| 2026-04-20 23:32 | 43.37174 | -87.40157 | 2934 ft | 257 kts | 302° |
| 2026-04-20 23:33 | 43.37999 | -87.42918 | 2934 ft | 247 kts | 272° |
| 2026-04-20 23:33 | 43.37111 | -87.47439 | 2936 ft | 243 kts | 251° |
| 2026-04-20 23:33 | 43.37490 | -87.54410 | 2934 ft | 250 kts | 275° |
| 2026-04-20 23:33 | 43.38359 | -87.61631 | 2932 ft | 251 kts | 276° |
| 2026-04-20 23:34 | 43.38719 | -87.67994 | 2909 ft | 241 kts | 243° |
| 2026-04-20 23:34 | 43.35241 | -87.71577 | 2928 ft | 238 kts | 207° |
| 2026-04-20 23:34 | 43.31112 | -87.74699 | 2929 ft | 238 kts | 209° |
| 2026-04-20 23:34 | 43.27139 | -87.77889 | 2930 ft | 238 kts | 210° |
| 2026-04-20 23:35 | 43.25161 | -87.79493 | 2927 ft | 238 kts | 210° |
| 2026-04-20 23:35 | 43.22291 | -87.81820 | 2927 ft | 237 kts | 210° |
| 2026-04-20 23:35 | 43.20929 | -87.82924 | 2917 ft | 221 kts | 210° |
| 2026-04-20 23:36 | 43.19646 | -87.83960 | 2928 ft | 204 kts | 208° |
| 2026-04-20 23:36 | 43.18423 | -87.84828 | 2941 ft | 198 kts | 203° |
| 2026-04-20 23:36 | 43.17139 | -87.85441 | 2940 ft | 190 kts | 195° |
| 2026-04-20 23:36 | 43.15845 | -87.85812 | 2733 ft | 192 kts | 190° |
| 2026-04-20 23:37 | 43.14555 | -87.86081 | 2611 ft | 180 kts | 188° |
| 2026-04-20 23:37 | 43.13358 | -87.86297 | 2712 ft | 167 kts | 188° |
| 2026-04-20 23:37 | 43.12211 | -87.86495 | 2735 ft | 167 kts | 188° |
| 2026-04-20 23:37 | 43.11062 | -87.86691 | 2740 ft | 167 kts | 188° |
| 2026-04-20 23:38 | 43.09909 | -87.86887 | 2744 ft | 167 kts | 188° |
| 2026-04-20 23:38 | 43.08751 | -87.87083 | 2747 ft | 167 kts | 188° |
| 2026-04-20 23:38 | 43.07597 | -87.87279 | 2750 ft | 167 kts | 188° |
| 2026-04-20 23:38 | 43.06432 | -87.87478 | 2780 ft | 164 kts | 188° |
| 2026-04-20 23:39 | 43.05368 | -87.87658 | 2746 ft | 140 kts | 188° |
| 2026-04-20 23:39 | 43.04470 | -87.87814 | 2653 ft | 124 kts | 188° |
| 2026-04-20 23:39 | 43.03622 | -87.87983 | 2459 ft | 123 kts | 187° |
| 2026-04-20 23:39 | 43.02776 | -87.88103 | 2123 ft | 121 kts | 183° |
| 2026-04-20 23:40 | 43.01945 | -87.88174 | 1877 ft | 120 kts | 183° |
| 2026-04-20 23:40 | 43.01110 | -87.88247 | 1724 ft | 118 kts | 187° |
| 2026-04-20 23:40 | 43.00302 | -87.88394 | 1616 ft | 122 kts | 185° |
| 2026-04-20 23:40 | 42.99456 | -87.88596 | 1484 ft | 122 kts | 187° |
| 2026-04-20 23:41 | 42.98610 | -87.88766 | 1322 ft | 122 kts | 185° |
| 2026-04-20 23:41 | 42.97780 | -87.88908 | 1150 ft | 119 kts | 185° |
| 2026-04-20 23:41 | 42.96950 | -87.89073 | 1006 ft | 120 kts | 184° |
| 2026-04-20 23:41 | 42.96137 | -87.89231 | 833 ft | 116 kts | 180° |
| 2026-04-20 23:42 | 42.95334 | -87.89365 | 696 ft | 114 kts | 184° |
| 2026-04-20 23:42 | 42.94750 | -87.89463 | 676 ft | 39 kts | 190° |
| 2026-04-20 23:42 | 42.94628 | -87.89545 | 677 ft | 15 kts | 250° |
| 2026-04-20 23:42 | 42.94626 | -87.89609 | 677 ft | 5 kts | 284° |
| 2026-04-20 23:43 | 42.94660 | -87.89637 | 677 ft | 7 kts | 7° |
| 2026-04-20 23:43 | 42.94722 | -87.89632 | 677 ft | 9 kts | 350° |
| 2026-04-20 23:43 | 42.94773 | -87.89698 | 677 ft | 10 kts | 321° |
| 2026-04-20 23:43 | 42.94846 | -87.89708 | 676 ft | 11 kts | 6° |
| 2026-04-20 23:44 | 42.94920 | -87.89709 | 676 ft | 9 kts | 347° |
| 2026-04-20 23:44 | 42.94952 | -87.89734 | 676 ft | 5 kts | 306° |
| 2026-04-20 23:44 | 42.94975 | -87.89784 | 676 ft | 7 kts | 295° |
| 2026-04-20 23:44 | 42.94982 | -87.89853 | 676 ft | 8 kts | 251° |
| 2026-04-20 23:45 | 42.94959 | -87.89929 | 676 ft | 9 kts | 236° |
| 2026-04-20 23:45 | 42.94912 | -87.89990 | 677 ft | 9 kts | 212° |
| 2026-04-20 23:45 | 42.94846 | -87.90009 | 678 ft | 9 kts | 187° |
| 2026-04-20 23:45 | 42.94797 | -87.90020 | 678 ft | 0 kts | 189° |
| 2026-04-20 23:46 | 42.94796 | -87.90020 | 678 ft | 0 kts | 189° |